Latest Weather Observations for Cape Moreton

IDQ60801

Issued at 3:32 pm EST Sunday 22 January 2017 (issued every 30 minutes, with the page automatically refreshed every 10 minutes)

About weather observations | Map of weather stations | Latest weather observations for QLD | Other Formats
Station Details ID: 040043 Name: CAPE MORETON LIGHTHOUSE Lat: -27.03 Lon: 153.47 Height: 99.9 m
Data from the previous 72 hours. | See also: Recent months at Cape Moreton
Date/Time
EST
Temp
°C
App
Temp
°C
Dew
Point
°C
Rel
Hum
%
Delta-T
°C
Wind Press
QNH
hPa
Press
MSL
hPa
Rain since
9am
mm
Dir  Spd
km/h
Gust
km/h
Spd
kts
Gust
kts
22/03:00pm 26.1 22.4 17.5 59 5.4 SE 33 39 18 21 1014.9 1014.3 0.0
22/02:30pm 25.9 21.6 17.0 58 5.5 SE 35 39 19 21 1015.0 1014.5 0.0
22/02:00pm 26.2 22.2 17.6 59 5.4 SE 35 43 19 23 1015.2 1014.7 0.0
22/01:30pm 26.0 22.0 17.6 60 5.3 ESE 35 43 19 23 1015.3 1014.8 0.0
22/01:00pm 27.0 23.7 18.3 59 5.5 ESE 33 41 18 22 1015.6 1015.1 0.0
22/12:30pm 26.6 22.1 18.2 60 5.3 ESE 39 44 21 24 1015.8 1015.3 0.0
22/12:00pm 26.3 22.0 18.7 63 4.9 ESE 39 44 21 24 1016.0 1015.5 0.0
22/11:30am 26.6 22.1 18.2 60 5.3 SE 39 48 21 26 1016.0 1015.5 0.0
22/11:00am 26.3 22.6 19.2 65 4.6 SE 37 44 20 24 1016.0 1015.5 0.0
22/10:30am 25.7 21.5 18.9 66 4.4 SE 39 46 21 25 1016.0 1015.5 0.0
22/10:00am 26.9 23.3 19.3 63 4.9 SE 37 44 20 24 1016.1 1015.6 0.0
22/09:30am 25.9 21.8 19.1 66 4.4 SE 39 46 21 25 1016.0 1015.5 0.0
22/09:00am 25.7 21.5 19.8 70 3.8 SE 41 52 22 28 1015.9 1015.4 5.6
22/08:30am 25.0 20.2 19.6 72 3.5 SE 44 52 24 28 1015.6 1015.1 5.6
22/08:00am 25.0 20.3 19.4 71 3.6 SE 43 56 23 30 1015.3 1014.8 5.6
22/07:30am 25.1 19.8 19.5 71 3.6 SE 46 56 25 30 1015.0 1014.5 5.6
22/07:00am 24.7 20.2 20.0 75 3.1 ESE 43 54 23 29 1014.9 1014.3 5.6
22/06:30am 24.4 19.3 19.0 72 3.5 SE 44 52 24 28 1014.8 1014.2 5.6
22/06:00am 24.1 19.0 19.8 77 2.8 ESE 46 57 25 31 1014.4 1013.8 5.6
22/05:30am 24.2 18.9 19.5 75 3.0 SE 46 56 25 30 1014.0 1013.4 5.6
22/05:00am 24.1 18.8 19.4 75 3.0 ESE 46 54 25 29 1013.4 1012.8 5.6
22/04:30am 23.9 18.5 19.2 75 3.0 ESE 46 57 25 31 1012.9 1012.3 5.6
22/04:00am 24.0 18.7 19.5 76 2.9 ESE 46 57 25 31 1012.4 1011.9 5.6
22/03:30am 24.1 18.3 20.0 78 2.7 SE 50 57 27 31 1012.1 1011.6 5.6
22/03:00am 24.1 19.7 20.2 79 2.5 ESE 43 50 23 27 1012.1 1011.6 5.6
22/02:30am 24.2 19.2 20.1 78 2.7 ESE 46 54 25 29 1012.3 1011.8 5.6
22/02:00am 24.2 19.8 20.5 80 2.4 ESE 44 52 24 28 1012.2 1011.7 5.6
22/01:30am 24.2 19.8 20.5 80 2.4 ESE 44 52 24 28 1012.1 1011.6 5.6
22/01:00am 24.3 18.8 19.8 76 2.9 ESE 48 56 26 30 1012.3 1011.8 5.6
22/12:30am 24.3 18.7 19.6 75 3.0 SE 48 56 26 30 1012.5 1012.0 5.6
22/12:00am 24.3 18.4 19.8 76 2.9 ESE 50 59 27 32 1012.5 1012.0 5.6
 
Date/Time
EST
Temp
°C
App
Temp
°C
Dew
Point
°C
Rel
Hum
%
Delta-T
°C
Wind Press
QNH
hPa
Press
MSL
hPa
Rain since
9am
mm
Dir  Spd
km/h
Gust
km/h
Spd
kts
Gust
kts
21/11:30pm 24.4 19.2 20.5 79 2.6 ESE 48 59 26 32 1012.7 1012.1 5.6
21/11:00pm 24.5 18.8 21.0 81 2.3 ESE 52 61 28 33 1012.9 1012.3 5.6
21/10:30pm 24.5 18.8 21.0 81 2.3 ESE 52 61 28 33 1013.1 1012.5 5.6
21/10:00pm 24.5 18.3 21.4 83 2.1 ESE 56 63 30 34 1012.7 1012.1 5.6
21/09:30pm 24.5 18.6 21.2 82 2.2 ESE 54 63 29 34 1012.4 1011.9 5.6
21/09:00pm 24.5 18.8 21.6 84 1.9 ESE 54 63 29 34 1012.1 1011.6 5.6
21/08:30pm 24.3 18.7 21.8 86 1.7 ESE 54 65 29 35 1011.9 1011.4 5.6
21/08:00pm 23.4 20.5 23.4 100 0.0 ESE 44 54 24 29 1011.7 1011.2 5.6
21/07:30pm 23.2 18.7 23.2 100 0.0 ESE 52 61 28 33 1011.4 1010.9 5.6
21/07:00pm 23.8 20.7 23.6 99 0.1 ESE 46 56 25 30 1010.7 1010.2 5.4
21/06:30pm 23.4 18.6 23.4 100 0.0 ESE 54 59 29 32 1010.2 1009.7 5.4
21/06:00pm 23.6 19.0 23.6 100 0.0 ESE 54 65 29 35 1009.9 1009.4 5.4
21/05:30pm 23.5 18.4 23.5 100 0.0 SE 56 65 30 35 1008.9 1008.4 5.4
21/05:00pm 23.2 17.8 23.2 100 0.0 SE 57 69 31 37 1008.1 1007.6 5.4
21/04:30pm 23.4 18.6 23.4 100 0.0 SE 54 61 29 33 1008.1 1007.6 1.6
21/04:00pm 25.2 20.8 23.3 89 1.3 SE 52 63 28 34 1007.9 1007.4 0.0
21/03:30pm 25.6 20.4 22.7 84 2.0 ESE 54 61 29 33 1007.3 1006.8 0.0
21/03:00pm 25.6 20.8 23.3 87 1.6 SE 54 63 29 34 1007.6 1007.1 0.0
21/02:30pm 26.2 22.0 23.7 86 1.7 ESE 52 59 28 32 1007.6 1007.1 0.0
21/02:00pm 26.5 23.0 24.2 87 1.6 SE 50 61 27 33 1007.4 1006.9 0.0
21/01:30pm 26.3 23.2 24.9 92 1.0 SE 50 57 27 31 1007.3 1006.8 0.0
21/01:00pm 26.9 24.8 25.3 91 1.1 SE 46 54 25 29 1007.3 1006.8 0.0
21/12:53pm 27.0 25.4 25.2 90 1.3 SE 43 54 23 29 1007.3 1006.8 0.0
21/12:30pm 28.6 29.0 23.7 75 3.4 SE 28 33 15 18 1007.6 1007.1 0.0
21/12:25pm 28.4 28.9 23.3 74 3.5 SE 26 32 14 17 1007.7 1007.2 0.0
21/12:00pm 30.6 35.1 24.0 68 4.6 E 7 9 4 5 1007.4 1006.9 0.0
21/11:30am 29.2 31.8 22.7 68 4.4 NW 13 17 7 9 1007.5 1007.0 0.0
21/11:00am 27.8 30.9 23.6 78 2.9 NW 13 17 7 9 1007.6 1007.1 0.0
21/10:30am 27.3 29.2 22.7 76 3.1 NW 17 22 9 12 1007.6 1007.1 0.0
21/10:00am 27.1 28.8 23.1 79 2.7 NW 19 22 10 12 1007.6 1007.1 0.0
21/09:30am 27.5 29.3 23.3 78 2.9 NW 19 24 10 13 1007.4 1006.9 0.0
21/09:00am 26.8 28.4 22.8 79 2.7 NW 19 26 10 14 1007.2 1006.7 0.0
21/08:30am 26.5 28.1 23.2 82 2.3 NW 20 26 11 14 1007.1 1006.6 0.0
21/08:00am 26.4 27.5 22.3 78 2.8 NW 20 28 11 15 1006.9 1006.4 0.0
21/07:30am 26.4 27.2 22.5 79 2.6 WNW 22 28 12 15 1006.8 1006.3 0.0
21/07:00am 25.9 26.3 21.8 78 2.7 NW 22 28 12 15 1006.5 1006.0 0.0
21/06:30am 25.7 27.0 22.6 83 2.1 NW 20 24 11 13 1006.3 1005.8 0.0
21/06:00am 25.7 26.5 21.8 79 2.6 NW 20 24 11 13 1006.1 1005.5 0.0
21/05:30am 25.7 26.0 21.6 78 2.7 NW 22 33 12 18 1005.8 1005.2 0.0
21/05:00am 25.6 25.5 21.5 78 2.7 NW 24 32 13 17 1005.3 1004.7 0.0
21/04:30am 25.8 24.8 21.9 79 2.6 NW 30 39 16 21 1004.8 1004.2 0.0
21/04:00am 25.9 24.2 21.3 76 3.1 NW 32 43 17 23 1004.3 1003.7 0.0
21/03:30am 26.1 24.4 21.3 75 3.2 NNW 32 44 17 24 1003.9 1003.3 0.0
21/03:00am 26.2 24.7 21.8 77 3.0 NNW 32 46 17 25 1003.8 1003.2 0.0
21/02:30am 26.2 25.4 22.3 79 2.6 NNW 30 39 16 21 1003.6 1003.0 0.0
21/02:00am 26.1 26.1 23.0 83 2.1 NNW 28 39 15 21 1003.7 1003.1 0.0
21/01:30am 26.2 25.8 23.1 83 2.1 NNW 30 39 16 21 1003.8 1003.2 0.0
21/01:00am 26.2 25.7 23.5 85 1.9 NNW 32 41 17 22 1003.9 1003.3 0.0
21/12:30am 26.1 26.2 24.0 88 1.4 NNW 30 39 16 21 1004.1 1003.5 0.0
21/12:00am 26.1 26.3 24.1 89 1.4 NNW 30 44 16 24 1004.2 1003.6 0.0
 
Date/Time
EST
Temp
°C
App
Temp
°C
Dew
Point
°C
Rel
Hum
%
Delta-T
°C
Wind Press
QNH
hPa
Press
MSL
hPa
Rain since
9am
mm
Dir  Spd
km/h
Gust
km/h
Spd
kts
Gust
kts
20/11:30pm 26.3 26.4 24.0 87 1.6 NNW 30 43 16 23 1004.8 1004.2 0.0
20/11:00pm 26.3 26.7 24.5 90 1.3 NNW 30 41 16 22 1005.1 1004.5 0.0
20/10:30pm 26.3 27.1 25.1 93 0.8 NNW 30 39 16 21 1005.5 1004.9 0.0
20/10:00pm 26.5 26.4 25.1 92 1.0 NNW 35 46 19 25 1005.1 1004.5 0.0
20/09:30pm 26.7 24.4 24.9 90 1.3 N 46 56 25 30 1004.8 1004.2 0.0
20/09:00pm 26.7 24.9 25.1 91 1.1 N 44 56 24 30 1004.5 1003.9 0.0
20/08:30pm 26.9 24.8 24.7 88 1.5 N 44 57 24 31 1004.2 1003.6 0.0
20/08:00pm 26.7 24.6 25.3 92 1.0 N 46 57 25 31 1004.0 1003.4 0.0
20/07:30pm 26.7 25.8 25.7 94 0.7 N 41 52 22 28 1004.0 1003.4 0.0
20/07:00pm 26.7 27.5 26.0 96 0.5 N 33 44 18 24 1004.0 1003.4 0.0
20/06:30pm 26.6 27.6 26.3 98 0.2 N 33 44 18 24 1003.8 1003.2 0.0
20/06:00pm 26.7 27.3 26.2 97 0.4 N 35 46 19 25 1004.0 1003.4 0.0
20/05:30pm 26.8 27.4 25.6 93 0.8 N 33 46 18 25 1003.9 1003.3 0.0
20/05:00pm 27.2 28.0 25.0 88 1.5 N 30 41 16 22 1003.8 1003.2 0.0
20/04:30pm 27.3 28.2 24.6 85 1.9 NNE 28 39 15 21 1003.7 1003.1 0.0
20/04:00pm 27.6 28.7 24.4 83 2.2 NNE 26 35 14 19 1003.8 1003.2 0.0
20/03:30pm 27.7 27.7 23.7 79 2.8 NNE 30 37 16 20 1004.2 1003.6 0.0
20/03:00pm 28.3 29.0 24.3 79 2.8 NNE 28 37 15 20 1004.7 1004.1 0.0
20/02:30pm 28.1 29.0 23.9 78 2.9 NNE 26 32 14 17 1005.1 1004.5 0.0
20/02:00pm 28.6 29.4 23.1 72 3.8 NNE 24 32 13 17 1005.7 1005.1 0.0
20/01:30pm 28.5 30.8 23.4 74 3.5 NNE 17 22 9 12 1006.5 1006.0 0.0
20/01:00pm 29.6 32.9 23.8 71 4.0 NNE 13 19 7 10 1007.1 1006.6 0.0
20/12:30pm 28.4 31.1 22.9 72 3.8 NNE 13 19 7 10 1007.6 1007.1 0.0
20/12:00pm 27.8 31.2 23.4 77 3.0 NNE 11 17 6 9 1007.9 1007.4 0.0
20/11:30am 26.9 30.5 23.8 83 2.1 NW 11 13 6 7 1008.4 1007.9 0.0
20/11:00am 26.3 29.6 23.8 86 1.7 NW 13 17 7 9 1008.6 1008.1 0.0
20/10:30am 26.0 29.2 23.7 87 1.6 NNW 13 17 7 9 1008.9 1008.4 0.0
20/10:00am 25.8 29.5 24.6 93 0.8 W 13 20 7 11 1009.6 1009.1 0.0
20/09:30am 24.7 27.4 24.7 100 0.0 WNW 19 24 10 13 1009.9 1009.4 0.0
20/09:00am 23.9 26.8 23.9 100 0.0 W 15 22 8 12 1009.8 1009.3 6.4
20/08:30am 24.0 28.5 24.0 100 0.0 WNW 7 11 4 6 1009.7 1009.2 6.4
20/08:00am 24.2 28.5 24.2 100 0.0 WSW 9 9 5 5 1010.1 1009.6 6.2
20/07:30am 23.8 28.4 23.8 100 0.0 SW 6 7 3 4 1010.0 1009.5 6.0
20/07:00am 23.7 27.3 23.7 100 0.0 WSW 11 15 6 8 1010.1 1009.6 4.4
20/06:30am 23.8 28.2 23.8 100 0.0 SW 7 11 4 6 1009.8 1009.3 3.8
20/06:00am 23.8 28.4 23.8 100 0.0 W 6 11 3 6 1009.7 1009.2 3.6
20/05:30am 24.0 28.5 24.0 100 0.0 SW 7 11 4 6 1009.3 1008.8 1.6
20/05:00am 24.1 27.4 23.9 99 0.1 SE 13 24 7 13 1008.9 1008.4 0.8
20/04:30am 24.8 27.2 23.6 93 0.8 SE 17 20 9 11 1008.6 1008.1 0.0
20/04:00am 25.0 27.0 23.6 92 1.0 ESE 19 20 10 11 1008.5 1008.0 0.0
20/03:30am 24.8 26.2 22.9 89 1.3 ESE 20 24 11 13 1008.5 1008.0 0.0
20/03:00am 24.9 25.5 22.8 88 1.4 ESE 24 28 13 15 1008.3 1007.8 0.0
20/02:30am 24.9 25.7 23.1 90 1.2 ESE 24 30 13 16 1008.7 1008.2 0.0
20/02:00am 24.9 25.8 23.3 91 1.1 ESE 24 28 13 15 1009.1 1008.6 0.0
20/01:30am 24.9 25.5 22.8 88 1.4 ESE 24 28 13 15 1009.4 1008.9 0.0
20/01:00am 24.9 24.9 22.4 86 1.7 ESE 26 30 14 16 1009.4 1008.9 0.0
20/12:30am 24.9 24.3 22.0 84 1.9 SE 28 32 15 17 1009.6 1009.1 0.0
20/12:00am 24.9 23.1 21.6 82 2.2 ESE 33 39 18 21 1009.7 1009.2 0.0
 
Date/Time
EST
Temp
°C
App
Temp
°C
Dew
Point
°C
Rel
Hum
%
Delta-T
°C
Wind Press
QNH
hPa
Press
MSL
hPa
Rain since
9am
mm
Dir  Spd
km/h
Gust
km/h
Spd
kts
Gust
kts
19/11:30pm 24.8 21.8 20.7 78 2.7 ESE 37 43 20 23 1009.9 1009.4 0.0
19/11:00pm 25.0 21.7 20.9 78 2.7 SE 39 46 21 25 1010.2 1009.7 0.0
19/10:30pm 25.0 22.6 21.1 79 2.6 SE 35 43 19 23 1010.7 1010.2 0.0
19/10:00pm 25.0 22.2 21.1 79 2.6 SE 37 44 20 24 1010.9 1010.4 0.0
19/09:30pm 24.9 22.6 21.2 80 2.4 SE 35 43 19 23 1011.2 1010.7 0.0
19/09:00pm 24.8 21.6 21.1 80 2.4 SE 39 46 21 25 1011.2 1010.7 0.0
19/08:30pm 24.9 21.6 21.6 82 2.2 SE 41 46 22 25 1010.8 1010.3 0.0
19/08:00pm 24.8 21.5 21.5 82 2.2 ESE 41 46 22 25 1010.5 1010.0 0.0
19/07:30pm 24.9 21.4 21.8 83 2.1 SE 43 52 23 28 1010.1 1009.6 0.0
19/07:00pm 25.0 22.0 22.1 84 1.9 ESE 41 50 22 27 1010.0 1009.5 0.0
19/06:30pm 25.1 20.9 21.6 81 2.3 SE 46 54 25 29 1009.6 1009.1 0.0
19/06:00pm 25.3 21.1 21.6 80 2.5 SE 46 56 25 30 1009.4 1008.9 0.0
19/05:30pm 25.5 21.3 21.6 79 2.6 SE 46 52 25 28 1009.2 1008.7 0.0
19/05:00pm 25.8 22.0 21.7 78 2.7 SE 44 54 24 29 1009.0 1008.5 0.0
19/04:30pm 25.9 22.1 21.6 77 2.9 SE 44 52 24 28 1008.8 1008.3 0.0
19/04:00pm 26.2 22.5 21.6 76 3.1 SE 43 52 23 28 1008.9 1008.4 0.0

Other Formats:

Comma delimited format used in spreadsheet applications
http://www.bom.gov.au/fwo/IDQ60801/IDQ60801.94594.axf

JavaScript Object Notation format (JSON) in row-major order
http://www.bom.gov.au/fwo/IDQ60801/IDQ60801.94594.json